Reynolds, ND (58275)

6:46 PM CDT on August 31, 2015 (GMT -0500)
Climax | | Change Station
CLOSE
Current Station
Personal Weather Station
Location: Climax, MN
Elevation: 853 ft
Nearby Weather Stations

Elev 853 ft 47.61 °N, 96.81 °W | Updated 15 minutes ago

Mostly Cloudy
Mostly Cloudy
80.2 °F
Feels Like 81 °F
N
9.0
Wind Variable Wind from WNW
Gusts 15.0 mph

Today
High -- | Low -- °F
--% Chance of Precip.
Yesterday
High -- | Low -- °F
Precip. -- in
6:45 AM 8:11 PM
Waning Gibbous, 93% visible
Pressure 29.79 in
Visibility 10.0 miles
Clouds Few 5000 ft
Mostly Cloudy 11000 ft
Mostly Cloudy 25000 ft
Heat Index 81 °F
Dew Point 61 °F
Humidity 53%
Rainfall 0.00 in
Snow Depth Not available.
UV 1 out of 12
Pollen 11.50 out of 12
Air Quality Not available.
Flu Activity Not available.
METAR KGFK 312253Z 26011KT 10SM FEW050 BKN110 BKN250 26/14 A2979 RMK AO2 SLP086 T02560144
Pressure 29.79 in
Visibility 10.0 miles
Clouds Few 5000 ft
Mostly Cloudy 11000 ft
Mostly Cloudy 25000 ft
Heat Index 81 °F
Dew Point 61 °F
Humidity 53%
Rainfall 0.00 in
Snow Depth Not available.
UV 1 out of 12
Pollen 11.50 out of 12
Air Quality Not available.
Flu Activity Not available.
METAR KGFK 312253Z 26011KT 10SM FEW050 BKN110 BKN250 26/14 A2979 RMK AO2 SLP086 T02560144

10-Day Weather Forecast

×

Almanac

Astronomy

Aug. 31, 2015 Rise Set
Actual Time
Civil Twilight
Nautical Twilight
Astronomical Twilight
Moon
Length of Visible Light
Length of Day
Tomorrow will be .
, % of the Moon is Illuminated

Today's Extremes

State Highs State Lows

Community

WunderPhotos

Upload Photos

1,851,395 photos uploaded!

WunderBlogs® & News

Nearby

Air Quality

  Air Quality AQ Index Pollutant
Not available.

Snow Depth

Station Depth Elevation

Earthquake Activity

City Distance Mag. Time & Date
Minimum magnitude displayed is 2.5.

Coastal Water Temperatures

Place Temperature

Stations

Nearby Weather Stations

Station Location Temp. Windchill Dew Point Humidity Wind Precip. Elev Updated Type